CheckWX is a tool to help pilots better visualize weather data.  It is not intended as a substitute for an official pre-flight weather briefing.

06:37:20 UTC

KTYR TAF
Tyler Pounds Regional Airport
Tyler, Texas, USA
KTYR 230540Z 2306/2406 16006KT P6SM BKN250 FM230900 17006KT P6SM BKN150 FM231200 16009KT P6SM OVC050 FM231500 16008KT P6SM VCSH OVC025 FM231800 18012KT 6SM -SHRA BR OVC015 FM232100 16009KT 2SM -SHRA BR OVC007

Feb-23@
06:00 UTC

Feb-23 @ 06:00 UTC

Feb-23@
09:00 UTC

Feb-23 @ 09:00 UTC

KTYR 230540Z 2306/2406 16006KT P6SM BKN250
Wind
  • 160° at 6 KTS
Cloud Levels
  • Broken at 25,000' AGL

Feb-23@
09:00 UTC

Feb-23 @ 09:00 UTC

Feb-23@
12:00 UTC

Feb-23 @ 12:00 UTC

FM230900 17006KT P6SM BKN150

From

From Standard forecast or significant change

Wind
  • 170° at 6 KTS
Cloud Levels
  • Broken at 15,000' AGL

Feb-23@
12:00 UTC

Feb-23 @ 12:00 UTC

Feb-23@
15:00 UTC

Feb-23 @ 15:00 UTC

FM231200 16009KT P6SM OVC050

From

From Standard forecast or significant change

Wind
  • 160° at 9 KTS
Cloud Levels
  • Overcast at 5,000' AGL

Feb-23@
15:00 UTC

Feb-23 @ 15:00 UTC

Feb-23@
18:00 UTC

Feb-23 @ 18:00 UTC

FM231500 16008KT P6SM VCSH OVC025

From

From Standard forecast or significant change

Wind
  • 160° at 8 KTS
Cloud Levels
  • Overcast at 2,500' AGL

Feb-23@
18:00 UTC

Feb-23 @ 18:00 UTC

Feb-23@
21:00 UTC

Feb-23 @ 21:00 UTC

FM231800 18012KT 6SM -SHRA BR OVC015

From

From Standard forecast or significant change

Wind
  • 180° at 12 KTS
Conditions
Light Rain, Mist
Cloud Levels
  • Overcast at 1,500' AGL

Feb-23@
21:00 UTC

Feb-23 @ 21:00 UTC

Feb-24@
06:00 UTC

Feb-24 @ 06:00 UTC

FM232100 16009KT 2SM -SHRA BR OVC007

From

From Standard forecast or significant change

Wind
  • 160° at 9 KTS
Conditions
Light Rain, Mist
Cloud Levels
  • Overcast at 700' AGL